createdAt,value
2019-02-22T00:00:19.978Z,94
2019-02-22T00:01:20.686Z,94
2019-02-22T00:02:21.367Z,94
2019-02-22T00:03:20.320Z,94
2019-02-22T00:04:20.710Z,94
2019-02-22T00:05:19.948Z,94
2019-02-22T00:06:20.202Z,94
2019-02-22T00:07:19.904Z,94
2019-02-22T00:08:20.339Z,94
2019-02-22T00:09:21.256Z,94
2019-02-22T00:10:20.356Z,94
2019-02-22T00:11:20.324Z,94
2019-02-22T00:12:20.389Z,94
2019-02-22T00:13:20.366Z,94
2019-02-22T00:14:20.121Z,94
2019-02-22T00:15:20.563Z,94
2019-02-22T00:16:20.177Z,94
2019-02-22T00:17:30.848Z,94
2019-02-22T00:18:19.894Z,94
2019-02-22T00:19:19.991Z,94
2019-02-22T00:20:20.013Z,94
2019-02-22T00:21:19.927Z,94
2019-02-22T00:22:20.231Z,94
2019-02-22T00:23:20.254Z,94
2019-02-22T00:24:20.645Z,94
2019-02-22T00:25:20.049Z,93
2019-02-22T00:26:20.173Z,93
2019-02-22T00:27:20.269Z,94
2019-02-22T00:28:20.262Z,94
2019-02-22T00:29:19.989Z,94
2019-02-22T00:30:21.504Z,94
2019-02-22T00:31:20.404Z,94
2019-02-22T00:32:20.433Z,94
2019-02-22T00:33:20.437Z,94
2019-02-22T00:34:20.006Z,94
2019-02-22T00:35:20.264Z,94
2019-02-22T00:36:20.154Z,94
2019-02-22T00:37:20.415Z,94
2019-02-22T00:38:19.927Z,94
2019-02-22T00:39:19.943Z,94
2019-02-22T00:40:20.011Z,94
2019-02-22T00:41:20.319Z,94
2019-02-22T00:42:20.404Z,94
2019-02-22T00:43:20.434Z,94
2019-02-22T00:44:21.244Z,94
2019-02-22T00:45:20.637Z,94
2019-02-22T00:46:20.023Z,94
2019-02-22T00:47:19.923Z,94
2019-02-22T00:48:20.466Z,94
2019-02-22T00:49:20.454Z,94
2019-02-22T00:50:23.726Z,94
2019-02-22T00:51:20.199Z,94
2019-02-22T00:52:19.952Z,94
2019-02-22T00:53:20.045Z,94
2019-02-22T00:54:20.449Z,94
2019-02-22T00:55:20.742Z,94
2019-02-22T00:56:20.476Z,94
2019-02-22T00:57:20.843Z,94
2019-02-22T00:58:20.386Z,94
2019-02-22T00:59:19.922Z,94
2019-02-22T01:00:20.209Z,94
2019-02-22T01:01:20.259Z,94
2019-02-22T01:02:21.153Z,94
2019-02-22T01:03:20.372Z,94
2019-02-22T01:04:19.965Z,94
2019-02-22T01:05:21.700Z,94
2019-02-22T01:06:21.422Z,94
2019-02-22T01:07:20.601Z,94
2019-02-22T01:08:20.049Z,94
2019-02-22T01:09:20.536Z,94
2019-02-22T01:10:30.408Z,94
2019-02-22T01:11:20.329Z,94
2019-02-22T01:12:20.415Z,94
2019-02-22T01:13:20.071Z,94
2019-02-22T01:14:20.452Z,94
2019-02-22T01:15:19.998Z,94
2019-02-22T01:16:20.307Z,94
2019-02-22T01:17:20.231Z,94
2019-02-22T01:18:20.045Z,94
2019-02-22T01:19:21.052Z,94
2019-02-22T01:20:20.898Z,94
2019-02-22T01:21:20.522Z,94
2019-02-22T01:22:20.488Z,94
2019-02-22T01:23:20.029Z,94
2019-02-22T01:24:21.533Z,94
2019-02-22T01:25:20.015Z,94
2019-02-22T01:26:20.771Z,94
2019-02-22T01:27:20.190Z,94
2019-02-22T01:28:20.488Z,94
2019-02-22T01:29:20.054Z,94
2019-02-22T01:30:20.018Z,94
2019-02-22T01:31:20.397Z,94
2019-02-22T01:32:20.049Z,94
2019-02-22T01:33:20.047Z,94
2019-02-22T01:34:20.236Z,94
2019-02-22T01:35:20.491Z,94
2019-02-22T01:36:20.185Z,94
2019-02-22T01:37:20.125Z,94
2019-02-22T01:38:20.245Z,94
2019-02-22T01:39:20.020Z,94
2019-02-22T01:40:20.764Z,94
2019-02-22T01:41:20.060Z,94
2019-02-22T01:42:20.039Z,94
2019-02-22T01:43:20.523Z,94
2019-02-22T01:44:20.298Z,94
2019-02-22T01:45:21.345Z,94
2019-02-22T01:46:19.999Z,94
2019-02-22T01:47:20.018Z,94
2019-02-22T01:48:20.651Z,94
2019-02-22T01:49:20.183Z,94
2019-02-22T01:50:20.600Z,94
2019-02-22T01:51:20.049Z,95
2019-02-22T01:52:20.526Z,95
2019-02-22T01:53:20.098Z,95
2019-02-22T01:54:20.128Z,95
2019-02-22T01:55:20.676Z,95
2019-02-22T01:56:20.236Z,95
2019-02-22T01:57:20.154Z,95
2019-02-22T01:58:20.280Z,95
2019-02-22T01:59:20.170Z,94
2019-02-22T02:00:20.156Z,94
2019-02-22T02:01:20.365Z,94
2019-02-22T02:02:20.702Z,94
2019-02-22T02:03:20.126Z,94
2019-02-22T02:04:20.571Z,93
2019-02-22T02:05:20.180Z,93
2019-02-22T02:06:20.328Z,93
2019-02-22T02:07:20.106Z,93
2019-02-22T02:08:20.285Z,93
2019-02-22T02:09:20.888Z,92
2019-02-22T02:10:20.852Z,92
2019-02-22T02:11:20.818Z,92
2019-02-22T02:16:43.136Z,92
2019-02-22T02:16:51.004Z,92
2019-02-22T02:17:51.044Z,91
2019-02-22T02:18:52.001Z,91
2019-02-22T02:19:51.115Z,91
2019-02-22T02:20:52.334Z,91
2019-02-22T02:21:51.993Z,90
2019-02-22T02:22:51.072Z,90
2019-02-22T02:23:51.025Z,90
2019-02-22T02:24:51.058Z,90
2019-02-22T02:25:51.663Z,90
2019-02-22T02:26:51.236Z,89
2019-02-22T02:27:51.603Z,89
2019-02-22T02:28:51.738Z,89
2019-02-22T02:29:51.289Z,88
2019-02-22T02:30:51.202Z,88
2019-02-22T02:31:51.293Z,88
2019-02-22T02:32:51.787Z,88
2019-02-22T02:33:52.036Z,88
2019-02-22T02:34:52.017Z,88
2019-02-22T02:35:51.238Z,88
2019-02-22T02:36:52.115Z,87
2019-02-22T02:37:51.768Z,87
2019-02-22T02:38:51.372Z,87
2019-02-22T02:39:51.869Z,87
2019-02-22T02:40:51.400Z,87
2019-02-22T02:41:51.899Z,87
2019-02-22T02:42:51.910Z,87
2019-02-22T02:43:51.470Z,87
2019-02-22T02:44:51.323Z,87
2019-02-22T02:45:51.797Z,87
2019-02-22T02:46:52.463Z,87
2019-02-22T02:47:51.598Z,87
2019-02-22T02:48:51.333Z,87
2019-02-22T02:49:51.300Z,87
2019-02-22T02:50:53.683Z,87
2019-02-22T02:51:51.399Z,87
2019-02-22T02:52:52.587Z,87
2019-02-22T02:53:51.716Z,87
2019-02-22T02:54:52.092Z,87
2019-02-22T02:55:51.691Z,87
2019-02-22T02:56:51.280Z,87
2019-02-22T02:57:51.413Z,87
2019-02-22T02:58:51.227Z,87
2019-02-22T02:59:51.646Z,87
2019-02-22T03:00:51.655Z,87
2019-02-22T03:01:51.286Z,87
2019-02-22T03:02:51.770Z,86
2019-02-22T03:03:51.655Z,86
2019-02-22T03:04:51.404Z,86
2019-02-22T03:05:51.641Z,86
2019-02-22T03:06:51.534Z,86
2019-02-22T03:07:51.338Z,86
2019-02-22T03:08:51.406Z,86
2019-02-22T03:09:51.498Z,86
2019-02-22T03:10:51.742Z,86
2019-02-22T03:11:51.399Z,86
2019-02-22T03:12:51.624Z,86
2019-02-22T03:13:51.365Z,86
2019-02-22T03:14:51.306Z,86
2019-02-22T03:15:51.833Z,86
2019-02-22T03:16:51.782Z,86
2019-02-22T03:17:51.658Z,86
2019-02-22T03:18:51.475Z,86
2019-02-22T03:19:51.400Z,86
2019-02-22T03:20:51.612Z,86
2019-02-22T03:21:51.238Z,86
2019-02-22T03:22:51.455Z,86
2019-02-22T03:23:51.436Z,86
2019-02-22T03:24:53.504Z,86
2019-02-22T03:25:51.298Z,86
2019-02-22T03:26:52.357Z,86
2019-02-22T03:27:51.499Z,86
2019-02-22T03:28:51.824Z,86
2019-02-22T03:29:51.355Z,86
2019-02-22T03:30:51.312Z,87
2019-02-22T03:31:51.388Z,87
2019-02-22T03:32:51.969Z,87
2019-02-22T03:33:51.395Z,87
2019-02-22T03:34:51.970Z,87
2019-02-22T03:35:51.469Z,87
2019-02-22T03:36:51.319Z,87
2019-02-22T03:37:51.789Z,87
2019-02-22T03:38:51.666Z,87
2019-02-22T03:39:51.487Z,87
2019-02-22T03:40:51.391Z,87
2019-02-22T03:41:51.392Z,87
2019-02-22T03:42:52.482Z,87
2019-02-22T03:43:51.953Z,87
2019-02-22T03:44:52.164Z,87
2019-02-22T03:45:51.206Z,87
2019-02-22T03:46:51.808Z,87
2019-02-22T03:47:52.096Z,87
2019-02-22T03:48:52.031Z,87
2019-02-22T03:49:51.258Z,87
2019-02-22T03:50:51.472Z,88
2019-02-22T03:51:51.252Z,88
2019-02-22T03:52:51.185Z,88
2019-02-22T03:53:51.222Z,88
2019-02-22T03:54:51.131Z,88
2019-02-22T03:55:51.624Z,88
2019-02-22T03:56:51.159Z,88
2019-02-22T03:57:51.224Z,88
2019-02-22T03:58:51.649Z,88
2019-02-22T03:59:52.318Z,88
2019-02-22T04:00:51.433Z,88
2019-02-22T04:01:51.726Z,88
2019-02-22T04:02:51.660Z,88
2019-02-22T04:03:51.172Z,88
2019-02-22T04:04:51.148Z,88
2019-02-22T04:05:52.897Z,88
2019-02-22T04:06:52.024Z,88
2019-02-22T04:07:51.916Z,88
2019-02-22T04:08:52.291Z,88
2019-02-22T04:09:52.187Z,88
2019-02-22T04:10:51.396Z,88
2019-02-22T04:11:51.245Z,88
2019-02-22T04:12:51.244Z,88
2019-02-22T04:13:51.232Z,88
2019-02-22T04:14:51.192Z,88
2019-02-22T04:15:51.259Z,88
2019-02-22T04:16:51.230Z,88
2019-02-22T04:17:51.748Z,88
2019-02-22T04:18:51.712Z,88
2019-02-22T04:19:51.691Z,88
2019-02-22T04:20:52.710Z,88
2019-02-22T04:21:51.289Z,88
2019-02-22T04:22:51.429Z,88
2019-02-22T04:23:51.506Z,88
2019-02-22T04:24:51.388Z,88
2019-02-22T04:25:51.974Z,88
2019-02-22T04:26:53.068Z,89
2019-02-22T04:27:52.281Z,89
2019-02-22T04:28:51.656Z,89
2019-02-22T04:29:51.436Z,89
2019-02-22T04:30:51.424Z,89
2019-02-22T04:31:51.469Z,89
2019-02-22T04:32:52.424Z,89
2019-02-22T04:33:51.403Z,90
2019-02-22T04:34:51.474Z,90
2019-02-22T04:35:52.288Z,90
2019-02-22T04:36:51.260Z,90
2019-02-22T04:37:51.262Z,90
2019-02-22T04:38:51.233Z,90
2019-02-22T04:39:51.299Z,90
2019-02-22T04:40:53.153Z,90
2019-02-22T04:41:57.789Z,91
2019-02-22T04:42:51.605Z,91
2019-02-22T04:43:51.309Z,91
2019-02-22T04:44:51.285Z,92
2019-02-22T04:46:01.933Z,92
2019-02-22T04:46:54.304Z,92
2019-02-22T04:47:51.786Z,92
2019-02-22T04:48:51.294Z,92
2019-02-22T04:49:51.312Z,92
2019-02-22T04:50:51.334Z,92
2019-02-22T04:51:51.376Z,92
2019-02-22T04:52:52.453Z,92
2019-02-22T04:53:52.712Z,92
2019-02-22T04:54:52.472Z,92
2019-02-22T04:57:56.165Z,92
2019-02-22T04:58:56.090Z,92
2019-02-22T04:59:56.500Z,93
2019-02-22T05:00:56.350Z,93
2019-02-22T05:01:56.261Z,93
2019-02-22T05:02:56.072Z,93
2019-02-22T05:03:56.307Z,93
2019-02-22T05:04:56.255Z,93
2019-02-22T05:05:57.117Z,93
2019-02-22T05:06:56.665Z,93
2019-02-22T05:07:56.231Z,93
2019-02-22T05:08:56.338Z,93
2019-02-22T05:09:56.802Z,93
2019-02-22T05:10:56.160Z,93
2019-02-22T05:11:56.038Z,93
2019-02-22T05:12:56.264Z,93
2019-02-22T05:13:56.806Z,93
2019-02-22T05:14:56.536Z,93
2019-02-22T05:15:56.295Z,93
2019-02-22T05:16:56.554Z,93
2019-02-22T05:17:56.086Z,93
2019-02-22T05:18:56.355Z,93
2019-02-22T05:19:56.301Z,93
2019-02-22T05:20:56.092Z,93
2019-02-22T05:21:56.578Z,93
2019-02-22T05:23:03.077Z,93
2019-02-22T05:23:56.243Z,93
2019-02-22T05:24:56.323Z,93
2019-02-22T05:27:37.708Z,93
2019-02-22T05:27:46.942Z,93
2019-02-22T05:28:47.034Z,93
2019-02-22T05:29:47.712Z,93
2019-02-22T05:30:47.573Z,93
2019-02-22T05:31:46.700Z,93
2019-02-22T05:32:46.478Z,93
2019-02-22T05:33:46.551Z,93
2019-02-22T05:34:46.806Z,93
2019-02-22T05:35:46.483Z,93
2019-02-22T05:36:50.907Z,93
2019-02-22T05:37:46.588Z,93
2019-02-22T05:38:46.617Z,93
2019-02-22T05:39:47.130Z,93
2019-02-22T05:40:47.543Z,93
2019-02-22T05:41:47.131Z,93
2019-02-22T05:42:46.943Z,93
2019-02-22T05:43:47.176Z,93
2019-02-22T05:44:47.016Z,93
2019-02-22T05:45:47.554Z,94
2019-02-22T05:46:46.808Z,94
2019-02-22T05:47:47.013Z,94
2019-02-22T05:48:47.005Z,94
2019-02-22T05:49:46.862Z,94
2019-02-22T05:50:46.839Z,94
2019-02-22T05:51:46.775Z,94
2019-02-22T05:52:46.847Z,94
2019-02-22T05:53:46.975Z,94
2019-02-22T05:54:46.823Z,94
2019-02-22T05:55:46.941Z,95
2019-02-22T05:56:47.066Z,95
2019-02-22T05:57:46.654Z,95
2019-02-22T05:58:47.419Z,95
2019-02-22T05:59:47.876Z,95
2019-02-22T06:00:47.024Z,95
2019-02-22T06:01:47.063Z,95
2019-02-22T06:02:47.706Z,95
2019-02-22T06:03:46.603Z,95
2019-02-22T06:04:47.516Z,95
2019-02-22T06:05:56.808Z,95
2019-02-22T06:06:46.596Z,95
2019-02-22T06:07:47.048Z,95
2019-02-22T06:08:47.330Z,95
2019-02-22T06:09:48.615Z,95
2019-02-22T06:10:47.089Z,96
2019-02-22T06:11:47.101Z,96
2019-02-22T06:12:49.517Z,96
2019-02-22T06:13:46.801Z,96
2019-02-22T06:14:46.634Z,96
2019-02-22T06:15:46.858Z,96
2019-02-22T06:16:47.002Z,96
2019-02-22T06:17:47.384Z,96
2019-02-22T06:18:46.965Z,96
2019-02-22T06:19:46.748Z,96
2019-02-22T06:20:47.104Z,96
2019-02-22T06:21:47.431Z,96
2019-02-22T06:22:46.844Z,96
2019-02-22T06:23:46.655Z,96
2019-02-22T06:24:46.689Z,96
2019-02-22T06:25:47.223Z,96
2019-02-22T06:26:47.242Z,96
2019-02-22T06:27:46.848Z,96
2019-02-22T06:28:47.507Z,96
2019-02-22T06:29:49.164Z,96
2019-02-22T06:30:46.870Z,96
2019-02-22T06:31:46.665Z,96
2019-02-22T06:32:46.684Z,96
2019-02-22T06:33:47.503Z,96
2019-02-22T06:34:47.482Z,96
2019-02-22T06:35:48.099Z,96
2019-02-22T06:36:46.676Z,96
2019-02-22T06:37:46.775Z,96
2019-02-22T06:38:47.236Z,96
2019-02-22T06:39:46.724Z,96
2019-02-22T06:40:48.173Z,96
2019-02-22T06:41:47.061Z,96
2019-02-22T06:42:46.857Z,96
2019-02-22T06:43:48.034Z,96
2019-02-22T06:44:46.736Z,96
2019-02-22T06:45:46.695Z,96
2019-02-22T06:46:46.692Z,96
2019-02-22T06:47:46.746Z,96
2019-02-22T06:48:47.036Z,96
2019-02-22T06:49:46.752Z,96
2019-02-22T06:50:46.758Z,96
2019-02-22T06:51:46.633Z,96
2019-02-22T06:52:47.146Z,96
2019-02-22T06:55:26.492Z,96
2019-02-22T06:55:40.457Z,96
2019-02-22T06:56:40.262Z,96
2019-02-22T06:57:40.304Z,96
2019-02-22T06:58:40.542Z,96
2019-02-22T06:59:40.304Z,96
2019-02-22T07:00:40.446Z,96
2019-02-22T07:01:40.516Z,96
2019-02-22T07:02:40.914Z,96
2019-02-22T07:03:40.451Z,96
2019-02-22T07:05:53.193Z,96
2019-02-22T07:06:52.716Z,96
2019-02-22T07:07:53.735Z,96
2019-02-22T07:08:52.702Z,96
2019-02-22T07:09:52.685Z,96
2019-02-22T07:10:52.750Z,96
2019-02-22T07:11:53.256Z,97
2019-02-22T07:12:56.585Z,97
2019-02-22T07:13:52.701Z,97
2019-02-22T07:14:53.345Z,97
2019-02-22T07:15:53.021Z,97
2019-02-22T07:16:52.761Z,96
2019-02-22T07:17:52.621Z,96
2019-02-22T07:18:52.721Z,96
2019-02-22T07:19:52.731Z,97
2019-02-22T07:20:53.814Z,97
2019-02-22T07:21:53.289Z,97
2019-02-22T07:22:52.733Z,97
2019-02-22T07:23:52.725Z,97
2019-02-22T07:24:52.766Z,97
2019-02-22T07:25:52.812Z,97
2019-02-22T07:26:52.655Z,97
2019-02-22T07:27:52.915Z,97
2019-02-22T07:28:52.920Z,97
2019-02-22T07:29:53.614Z,97
2019-02-22T07:30:52.754Z,97
2019-02-22T07:31:52.788Z,97
2019-02-22T07:32:52.839Z,97
2019-02-22T07:33:52.723Z,97
2019-02-22T07:34:52.915Z,97
2019-02-22T07:35:53.375Z,97
2019-02-22T07:36:52.756Z,97
2019-02-22T07:37:53.153Z,97
2019-02-22T07:38:52.747Z,97
2019-02-22T07:39:52.718Z,97
2019-02-22T07:40:52.968Z,97
2019-02-22T07:41:52.923Z,97
2019-02-22T07:42:53.047Z,97
2019-02-22T07:43:52.770Z,97
2019-02-22T07:44:52.764Z,97
2019-02-22T07:45:53.521Z,97
2019-02-22T07:46:52.980Z,97
2019-02-22T07:47:52.961Z,97
2019-02-22T07:48:53.180Z,97
2019-02-22T07:49:52.996Z,97
2019-02-22T08:00:40.106Z,97
2019-02-22T08:00:48.014Z,97
2019-02-22T08:01:48.510Z,97
2019-02-22T08:02:48.380Z,97
2019-02-22T08:03:47.951Z,97
2019-02-22T08:04:47.902Z,96
2019-02-22T08:05:48.000Z,96
2019-02-22T08:06:47.992Z,96
2019-02-22T08:07:48.247Z,96
2019-02-22T08:08:48.929Z,96
2019-02-22T08:09:49.342Z,96
2019-02-22T08:10:48.577Z,96
2019-02-22T08:11:48.412Z,96
2019-02-22T08:12:48.037Z,96
2019-02-22T08:13:48.126Z,96
2019-02-22T08:14:48.152Z,96
2019-02-22T08:15:48.077Z,96
2019-02-22T08:16:48.452Z,96
2019-02-22T08:17:48.211Z,96
2019-02-22T08:18:47.961Z,96
2019-02-22T08:20:16.781Z,96
2019-02-22T08:20:48.020Z,95
2019-02-22T08:21:48.020Z,95
2019-02-22T08:22:48.524Z,95
2019-02-22T08:23:47.944Z,95
2019-02-22T08:24:49.029Z,95
2019-02-22T08:25:48.780Z,95
2019-02-22T08:26:47.979Z,95
2019-02-22T08:27:52.963Z,95
2019-02-22T08:28:48.501Z,95
2019-02-22T08:29:48.552Z,95
2019-02-22T08:30:48.233Z,95
2019-02-22T08:31:48.243Z,95
2019-02-22T08:32:48.103Z,95
2019-02-22T08:33:49.113Z,95
2019-02-22T08:34:48.074Z,95
2019-02-22T08:35:48.293Z,95
2019-02-22T08:36:48.158Z,95
2019-02-22T08:37:48.023Z,95
2019-02-22T08:38:48.867Z,95
2019-02-22T08:39:58.978Z,95
2019-02-22T08:40:48.040Z,94
2019-02-22T08:41:48.662Z,94
2019-02-22T08:42:48.170Z,94
2019-02-22T08:43:48.500Z,94
2019-02-22T08:44:47.960Z,94
2019-02-22T08:45:48.028Z,94
2019-02-22T08:46:48.068Z,94
2019-02-22T08:47:48.524Z,94
2019-02-22T08:48:48.041Z,94
2019-02-22T08:49:48.447Z,94
2019-02-22T08:50:48.633Z,94
2019-02-22T08:51:48.001Z,94
2019-02-22T08:52:48.468Z,94
2019-02-22T08:53:48.563Z,94
2019-02-22T08:54:48.171Z,94
2019-02-22T08:55:48.249Z,94
2019-02-22T08:56:48.080Z,94
2019-02-22T08:57:47.995Z,94
2019-02-22T08:58:48.514Z,94
2019-02-22T08:59:48.132Z,94
2019-02-22T09:00:48.519Z,94
2019-02-22T09:01:48.219Z,94
2019-02-22T09:02:48.491Z,94
2019-02-22T09:03:50.537Z,93
2019-02-22T09:04:49.025Z,93
2019-02-22T09:05:48.502Z,93
2019-02-22T09:06:48.040Z,93
2019-02-22T09:07:48.007Z,93
2019-02-22T09:08:48.034Z,93
2019-02-22T09:10:16.495Z,93
2019-02-22T09:10:57.532Z,92
2019-02-22T09:11:48.618Z,92
2019-02-22T09:12:48.433Z,92
2019-02-22T09:13:48.223Z,92
2019-02-22T09:14:48.087Z,92
2019-02-22T09:15:48.281Z,92
2019-02-22T09:16:48.104Z,92
2019-02-22T09:17:48.759Z,92
2019-02-22T09:18:48.311Z,92
2019-02-22T09:19:48.115Z,92
2019-02-22T09:22:01.042Z,92
2019-02-22T09:23:01.861Z,92
2019-02-22T09:24:01.444Z,92
2019-02-22T09:25:01.038Z,92
2019-02-22T09:26:01.182Z,92
2019-02-22T09:27:01.011Z,92
2019-02-22T09:28:01.237Z,92
2019-02-22T09:29:00.950Z,91
2019-02-22T09:30:02.091Z,91
2019-02-22T09:31:01.060Z,91
2019-02-22T09:32:01.590Z,90
2019-02-22T09:33:01.662Z,90
2019-02-22T09:34:00.961Z,90
2019-02-22T09:35:01.449Z,90
2019-02-22T09:36:00.885Z,90
2019-02-22T09:37:01.486Z,90
2019-02-22T09:38:01.093Z,90
2019-02-22T09:39:01.738Z,90
2019-02-22T09:40:01.000Z,90
2019-02-22T09:41:01.214Z,90
2019-02-22T09:42:01.132Z,88
2019-02-22T09:43:01.000Z,88
2019-02-22T09:44:00.997Z,87
2019-02-22T09:45:01.185Z,87
2019-02-22T09:46:01.252Z,87
2019-02-22T09:47:00.997Z,87
2019-02-22T09:48:00.922Z,87
2019-02-22T09:49:01.152Z,86
2019-02-22T09:50:01.715Z,86
2019-02-22T09:51:01.142Z,86
2019-02-22T09:52:01.172Z,86
2019-02-22T09:53:00.927Z,86
2019-02-22T09:54:01.187Z,86
2019-02-22T09:55:00.975Z,86
2019-02-22T09:56:00.986Z,86
2019-02-22T09:57:02.096Z,85
2019-02-22T09:58:01.991Z,85
2019-02-22T09:59:01.243Z,85
2019-02-22T10:00:01.030Z,85
2019-02-22T10:01:01.202Z,85
2019-02-22T10:02:01.090Z,85
2019-02-22T10:03:01.693Z,85
2019-02-22T10:04:01.498Z,85
2019-02-22T10:05:01.222Z,85
2019-02-22T10:06:01.055Z,85
2019-02-22T10:07:01.155Z,84
2019-02-22T10:08:02.120Z,84
2019-02-22T10:09:03.898Z,84
2019-02-22T10:10:01.153Z,83
2019-02-22T10:11:01.021Z,83
2019-02-22T10:12:01.000Z,83
2019-02-22T10:13:01.671Z,83
2019-02-22T10:14:06.299Z,83
2019-02-22T10:15:02.170Z,84
2019-02-22T10:16:01.004Z,84
2019-02-22T10:17:01.017Z,83
2019-02-22T10:18:01.429Z,83
2019-02-22T10:19:00.991Z,83
2019-02-22T10:20:01.805Z,83
2019-02-22T10:21:02.056Z,83
2019-02-22T10:22:01.294Z,81
2019-02-22T10:23:01.054Z,81
2019-02-22T10:24:01.633Z,81
2019-02-22T10:25:01.681Z,80
2019-02-22T10:26:11.260Z,80
2019-02-22T10:27:01.048Z,80
2019-02-22T10:28:01.035Z,80
2019-02-22T10:29:01.235Z,80
2019-02-22T10:30:01.260Z,80
2019-02-22T10:31:01.238Z,80
2019-02-22T10:32:01.073Z,80
2019-02-22T10:33:01.299Z,80
2019-02-22T10:34:01.835Z,80
2019-02-22T10:35:01.523Z,78
2019-02-22T10:36:17.425Z,78
2019-02-22T10:37:01.439Z,78
2019-02-22T10:38:01.784Z,78
2019-02-22T10:39:01.100Z,78
2019-02-22T10:40:01.042Z,79
2019-02-22T10:41:01.917Z,79
2019-02-22T10:42:01.221Z,79
2019-02-22T10:43:01.115Z,77
2019-02-22T10:44:01.068Z,77
2019-02-22T10:45:01.048Z,78
2019-02-22T10:46:01.282Z,78
2019-02-22T10:47:01.079Z,78
2019-02-22T10:48:01.096Z,76
2019-02-22T10:49:01.534Z,76
2019-02-22T10:50:01.542Z,76
2019-02-22T10:51:01.543Z,76
2019-02-22T10:52:01.546Z,76
2019-02-22T10:53:02.276Z,75
2019-02-22T10:54:01.019Z,75
2019-02-22T10:55:01.723Z,75
2019-02-22T10:56:01.312Z,75
2019-02-22T10:57:01.580Z,75
2019-02-22T10:58:01.132Z,73
2019-02-22T10:59:01.296Z,73
2019-02-22T11:00:01.142Z,73
2019-02-22T11:01:01.462Z,73
2019-02-22T11:02:01.115Z,73
2019-02-22T11:03:01.063Z,73
2019-02-22T11:04:01.543Z,73
2019-02-22T11:05:01.135Z,73
2019-02-22T11:06:01.237Z,73
2019-02-22T11:07:01.171Z,73
2019-02-22T11:08:01.108Z,73
2019-02-22T11:09:01.047Z,73
2019-02-22T11:10:01.522Z,73
2019-02-22T11:11:02.225Z,73
2019-02-22T11:12:01.314Z,73
2019-02-22T11:13:01.691Z,73
2019-02-22T11:14:01.415Z,73
2019-02-22T11:15:01.132Z,73
2019-02-22T11:16:01.565Z,73
2019-02-22T11:17:01.395Z,73
2019-02-22T11:18:01.640Z,72
2019-02-22T11:19:02.385Z,72
2019-02-22T11:20:01.817Z,72
2019-02-22T11:21:01.585Z,72
2019-02-22T11:22:01.985Z,72
2019-02-22T11:23:02.577Z,73
2019-02-22T11:24:01.730Z,73
2019-02-22T11:25:02.538Z,73
2019-02-22T11:26:02.313Z,73
2019-02-22T11:27:01.278Z,73
2019-02-22T11:28:01.573Z,73
2019-02-22T11:29:01.264Z,73
2019-02-22T11:30:01.913Z,73
2019-02-22T11:31:01.250Z,72
2019-02-22T11:32:02.590Z,72
2019-02-22T11:33:01.167Z,72
2019-02-22T11:34:01.928Z,72
2019-02-22T11:35:01.613Z,72
2019-02-22T11:36:01.235Z,72
2019-02-22T11:37:01.488Z,72
2019-02-22T11:38:01.499Z,72
2019-02-22T11:39:01.383Z,72
2019-02-22T11:40:02.767Z,72
2019-02-22T11:41:11.364Z,72
2019-02-22T11:42:01.476Z,72
2019-02-22T11:43:01.298Z,72
2019-02-22T11:44:02.393Z,72
2019-02-22T11:45:02.033Z,72
2019-02-22T11:46:01.262Z,72
2019-02-22T11:47:01.180Z,72
2019-02-22T11:48:08.387Z,72
2019-02-22T11:49:01.440Z,73
2019-02-22T11:50:01.256Z,73
2019-02-22T11:52:42.402Z,72
2019-02-22T11:52:50.279Z,72
2019-02-22T11:53:50.348Z,72
2019-02-22T11:54:50.472Z,72
2019-02-22T11:55:50.720Z,72
2019-02-22T11:56:51.215Z,71
2019-02-22T11:57:50.241Z,71
2019-02-22T11:58:50.264Z,71
2019-02-22T11:59:50.301Z,71
2019-02-22T12:00:50.831Z,71
2019-02-22T12:01:50.403Z,71
2019-02-22T12:02:51.458Z,71
2019-02-22T12:03:51.337Z,71
2019-02-22T12:04:50.193Z,71
2019-02-22T12:05:50.321Z,71
2019-02-22T12:06:50.561Z,71
2019-02-22T12:07:50.290Z,71
2019-02-22T12:08:50.254Z,71
2019-02-22T12:09:50.462Z,71
2019-02-22T12:10:50.310Z,71
2019-02-22T12:11:50.400Z,70
2019-02-22T12:12:50.968Z,70
2019-02-22T12:13:50.783Z,70
2019-02-22T12:14:51.587Z,70
2019-02-22T12:15:50.699Z,70
2019-02-22T12:16:50.245Z,70
2019-02-22T12:17:50.515Z,70
2019-02-22T12:18:50.307Z,70
2019-02-22T12:19:50.247Z,70
2019-02-22T12:20:50.736Z,70
2019-02-22T12:21:51.976Z,70
2019-02-22T12:22:50.386Z,70
2019-02-22T12:23:52.789Z,70
2019-02-22T12:24:50.827Z,70
2019-02-22T12:25:51.537Z,70
2019-02-22T12:26:50.308Z,70
2019-02-22T12:27:51.148Z,70
2019-02-22T12:28:50.486Z,70
2019-02-22T12:29:50.424Z,70
2019-02-22T12:30:51.361Z,70
2019-02-22T12:31:50.576Z,70
2019-02-22T12:32:50.667Z,70
2019-02-22T12:33:50.909Z,70
2019-02-22T12:34:50.503Z,70
2019-02-22T12:35:51.372Z,70
2019-02-22T12:36:51.370Z,70
2019-02-22T12:37:50.395Z,70
2019-02-22T12:38:50.472Z,70
2019-02-22T12:39:50.373Z,70
2019-02-22T12:40:50.536Z,70
2019-02-22T12:41:51.121Z,69
2019-02-22T12:42:50.373Z,69
2019-02-22T12:43:50.839Z,69
2019-02-22T12:44:50.855Z,69
2019-02-22T12:45:50.566Z,69
2019-02-22T12:46:51.990Z,69
2019-02-22T12:47:52.506Z,69
2019-02-22T12:48:50.328Z,69
2019-02-22T12:49:50.397Z,69
2019-02-22T12:50:50.549Z,69
2019-02-22T12:51:50.622Z,69
2019-02-22T12:52:50.896Z,69
2019-02-22T12:53:50.418Z,69
2019-02-22T12:54:50.613Z,68
2019-02-22T12:55:51.018Z,68
2019-02-22T12:56:57.138Z,68
2019-02-22T12:57:50.629Z,68
2019-02-22T12:58:50.367Z,68
2019-02-22T12:59:50.590Z,68
2019-02-22T13:00:50.374Z,68
2019-02-22T13:01:50.402Z,68
2019-02-22T13:03:01.063Z,68
2019-02-22T13:03:50.836Z,68
2019-02-22T13:04:50.874Z,68
2019-02-22T13:05:50.534Z,68
2019-02-22T13:06:50.365Z,68
2019-02-22T13:07:52.423Z,68
2019-02-22T13:08:50.758Z,68
2019-02-22T13:09:50.988Z,68
2019-02-22T13:10:50.422Z,68
2019-02-22T13:11:50.422Z,68
2019-02-22T13:12:50.654Z,68
2019-02-22T13:13:50.488Z,68
2019-02-22T13:14:50.464Z,69
2019-02-22T13:15:50.612Z,69
2019-02-22T13:16:50.474Z,69
2019-02-22T13:17:50.794Z,69
2019-02-22T13:18:51.169Z,69
2019-02-22T13:19:50.836Z,69
2019-02-22T13:20:53.164Z,69
2019-02-22T13:21:50.407Z,69
2019-02-22T13:22:50.721Z,69
2019-02-22T13:23:50.374Z,69
2019-02-22T13:24:50.619Z,69
2019-02-22T13:25:50.820Z,70
2019-02-22T13:26:50.501Z,70
2019-02-22T13:27:50.519Z,69
2019-02-22T13:28:50.713Z,69
2019-02-22T13:29:50.481Z,69
2019-02-22T13:30:51.151Z,70
2019-02-22T13:31:53.170Z,70
2019-02-22T13:32:51.590Z,70
2019-02-22T13:33:50.548Z,70
2019-02-22T13:34:50.531Z,70
2019-02-22T13:35:50.927Z,70
2019-02-22T13:36:50.777Z,70
2019-02-22T13:37:50.471Z,71
2019-02-22T13:38:50.683Z,71
2019-02-22T13:49:36.577Z,71
2019-02-22T13:50:36.515Z,71
2019-02-22T13:51:36.525Z,71
2019-02-22T13:52:37.466Z,71
2019-02-22T13:53:36.634Z,71
2019-02-22T13:54:37.198Z,71
2019-02-22T13:55:36.718Z,71
2019-02-22T13:56:36.494Z,71
2019-02-22T13:57:36.687Z,71
2019-02-22T13:58:36.581Z,70
2019-02-22T13:59:37.964Z,70
2019-02-22T14:00:36.795Z,70
2019-02-22T14:01:36.554Z,70
2019-02-22T14:02:36.758Z,70
2019-02-22T14:03:37.023Z,71
2019-02-22T14:04:36.457Z,71
2019-02-22T14:05:37.022Z,71
2019-02-22T14:06:37.005Z,71
2019-02-22T14:07:36.538Z,71
2019-02-22T14:08:36.644Z,71
2019-02-22T14:09:46.723Z,71
2019-02-22T14:10:37.200Z,71
2019-02-22T14:11:36.710Z,71
2019-02-22T14:12:37.402Z,71
2019-02-22T14:13:36.523Z,71
2019-02-22T14:14:37.166Z,71
2019-02-22T14:15:37.937Z,71
2019-02-22T14:16:36.887Z,71
2019-02-22T14:17:37.243Z,71
2019-02-22T14:18:36.560Z,72
2019-02-22T14:19:37.139Z,72
2019-02-22T14:20:36.577Z,72
2019-02-22T14:21:38.162Z,71
2019-02-22T14:22:37.696Z,71
2019-02-22T14:23:37.189Z,71
2019-02-22T14:24:36.716Z,71
2019-02-22T14:25:36.602Z,71
2019-02-22T14:26:37.028Z,72
2019-02-22T14:27:37.114Z,72
2019-02-22T14:28:36.715Z,71
2019-02-22T14:29:37.047Z,71
2019-02-22T14:30:36.625Z,71
2019-02-22T14:31:36.616Z,71
2019-02-22T14:32:36.869Z,71
2019-02-22T14:33:36.919Z,71
2019-02-22T14:34:36.685Z,71
2019-02-22T14:35:37.192Z,71
2019-02-22T14:36:37.356Z,72
2019-02-22T14:37:36.613Z,72
2019-02-22T14:38:36.902Z,72
2019-02-22T14:39:38.758Z,72
2019-02-22T14:40:36.619Z,72
2019-02-22T14:41:37.558Z,72
2019-02-22T14:42:37.126Z,72
2019-02-22T14:43:36.578Z,72
2019-02-22T14:44:37.027Z,72